Airfield :







YOU CAN JOIN US ON...

 
LOGIN :

Register | Disclaimer

   EN    FR    IT 

 









Legend :    VFR   Marginal VFR   IFR   Intensive IFR   Very Intensive IFR
Visi :
Ceiling :
>= 8 km
>= 3000ft
5 to 8 km
1000 to 3000 ft
1500m to 5 km
500 to 1000 ft
800 to 1500m
200 to 500 ft
< 800m
< 200 ft
Symbols :   Thunderstorms  Fog  Heavy snow  Heavy precipitations  Wind > 20 kt






- Airport Elevation : 38 ft
- IATA code : YMH


CYMH - Mary's Harbour

CURRENT METAR :
  • 121700Z AUTO 23017G26KT 9SM SCT140 25/20 A2982 RMK SLP099 DENSITY ALT 1200FT

EXPIRED METARs :
  • 121600Z AUTO 23012G23KT 9SM FEW025 26/20 A2983 RMK SLP102 DENSITY ALT 1400FT
  • 121500Z AUTO 21014G23KT 9SM FEW026 BKN095 27/20 A2984 RMK SLP105 DENSITY ALT 1500FT

TAF TAF CYMH
Valid from the 12 at 14:00 until the 13 at 02:00 UTC


121338Z 1214/1302 22015G25KT P6SM FEW015 BKN080
TEMPO 1214/1220 P6SM -SHRA BKN015 OVC080
FM122000 22015G25KT P6SM -SHRA OVC080
TEMPO 1223/1302 5SM SHRA BKN020 RMK FCST BASED ON AUTO OBS. NXT FCST BY 122000Z
CZQX FIR / North America



MET'MAP, your aeronautical weather chart ! - Copyright ORBIFLY December 2007 - Disclaimer

ORBIFLY MET'MAP TEAM :

Programming & Development : Alexandra Zaïnal
Concept & original design : Baudouin d'Aumeries
Assistance for programming : Marc-Olivier Méhu
Technical & hardware support : Manuel Goepfert

Contact : metmap@orbifly.com




SOURCES & CREDITS :

   NOAA